Time;durP1;ratioP1;P1;durP2;ratioP2;P2;SDS_P1;SDS_P2;PMS_P1;PMS_P2;Temp;Humidity;BMP_temperature;BMP_pressure;BME280_temperature;BME280_humidity;BME280_pressure;Samples;Min_cycle;Max_cycle;Signal;HPM_P1;HPM_P2
2024/03/05 00:01:48;;;;;;;40.13;13.52;;;;;;;;;;6176423;28;20046;-79
2024/03/05 00:04:50;;;;;;;40.80;13.85;;;;;;;;;;6179899;28;20070;-81
2024/03/05 00:07:52;;;;;;;39.10;14.07;;;;;;;;;;6176196;28;20051;-78
2024/03/05 00:10:55;;;;;;;42.10;14.52;;;;;;;;;;6173210;28;20226;-81
2024/03/05 00:13:57;;;;;;;41.90;14.23;;;;;;;;;;6186202;28;20062;-81
2024/03/05 00:16:59;;;;;;;48.22;14.60;;;;;;;;;;6190789;28;20128;-81
2024/03/05 00:20:01;;;;;;;47.35;14.82;;;;;;;;;;6189978;28;20116;-81
2024/03/05 00:23:03;;;;;;;46.00;14.15;;;;;;;;;;6177111;28;20081;-81
2024/03/05 00:26:05;;;;;;;40.78;14.18;;;;;;;;;;6191617;28;20054;-78
2024/03/05 00:29:07;;;;;;;46.17;15.57;;;;;;;;;;6203198;28;20034;-78
2024/03/05 00:32:09;;;;;;;37.92;13.48;;;;;;;;;;6189872;28;20050;-79
2024/03/05 00:35:11;;;;;;;36.55;12.40;;;;;;;;;;6182361;28;20050;-81
2024/03/05 00:38:13;;;;;;;35.28;12.13;;;;;;;;;;6187510;28;20038;-82
2024/03/05 00:41:25;;;;;;;41.80;14.20;;;;;;;;;;6172423;28;20118;-79
2024/03/05 00:44:27;;;;;;;45.50;14.55;;;;;;;;;;6160884;28;20047;-81
2024/03/05 00:47:30;;;;;;;45.63;13.63;;;;;;;;;;6191269;28;20050;-80
2024/03/05 00:50:32;;;;;;;34.58;12.02;;;;;;;;;;6180396;28;20585;-81
2024/03/05 00:53:34;;;;;;;44.08;13.40;;;;;;;;;;6185213;28;20046;-80
2024/03/05 00:56:37;;;;;;;40.30;14.25;;;;;;;;;;6189173;28;20049;-78
2024/03/05 00:59:38;;;;;;;42.67;14.57;;;;;;;;;;6181180;28;20524;-80
2024/03/05 01:02:42;;;;;;;37.13;12.75;;;;;;;;;;6173471;28;20046;-80
2024/03/05 01:05:44;;;;;;;37.63;13.10;;;;;;;;;;6158294;28;20170;-82
2024/03/05 01:08:45;;;;;;;36.95;12.48;;;;;;;;;;6173746;28;20050;-81
2024/03/05 01:11:47;;;;;;;45.10;14.63;;;;;;;;;;6176498;28;20050;-80
2024/03/05 01:14:49;;;;;;;37.53;12.23;;;;;;;;;;6178266;28;20124;-80
2024/03/05 01:17:51;;;;;;;34.20;11.55;;;;;;;;;;6173085;28;20038;-82
2024/03/05 01:20:53;;;;;;;37.40;12.50;;;;;;;;;;6156976;28;20485;-81
2024/03/05 01:23:55;;;;;;;37.88;11.30;;;;;;;;;;6182429;28;20057;-79
2024/03/05 01:26:56;;;;;;;35.67;13.05;;;;;;;;;;6182243;28;20058;-81
2024/03/05 01:29:59;;;;;;;41.67;12.48;;;;;;;;;;6183420;28;20057;-82
2024/03/05 01:33:05;;;;;;;36.15;12.63;;;;;;;;;;6179483;28;20057;-79
2024/03/05 01:36:10;;;;;;;46.42;13.52;;;;;;;;;;6179825;28;20121;-81
2024/03/05 01:39:12;;;;;;;41.53;13.68;;;;;;;;;;6176488;28;20069;-78
2024/03/05 01:42:13;;;;;;;43.58;13.15;;;;;;;;;;6174038;28;20061;-82
2024/03/05 01:45:18;;;;;;;40.05;12.68;;;;;;;;;;6184249;28;20057;-81
2024/03/05 01:48:21;;;;;;;38.28;12.60;;;;;;;;;;6176030;28;20056;-78
2024/03/05 01:51:24;;;;;;;36.72;11.23;;;;;;;;;;6172699;28;20052;-81
2024/03/05 01:54:28;;;;;;;;;;;;;;;;;;6166207;28;20089;-79
2024/03/05 01:57:30;;;;;;;;;;;;;;;;;;6178743;28;19922;-81
2024/03/05 02:00:32;;;;;;;35.72;11.68;;;;;;;;;;6177375;28;19926;-81
2024/03/05 02:03:35;;;;;;;33.13;12.10;;;;;;;;;;6178915;28;20042;-81
2024/03/05 02:06:41;;;;;;;38.10;12.60;;;;;;;;;;6172705;28;20049;-80
2024/03/05 02:09:44;;;;;;;33.75;12.52;;;;;;;;;;6173174;28;20045;-81
2024/03/05 02:12:46;;;;;;;34.15;12.77;;;;;;;;;;6177421;28;20139;-79
2024/03/05 02:15:49;;;;;;;40.20;13.43;;;;;;;;;;6180637;28;20050;-77
2024/03/05 02:18:50;;;;;;;37.72;12.13;;;;;;;;;;6178747;28;20047;-81
2024/03/05 02:22:03;;;;;;;38.30;12.63;;;;;;;;;;6178213;28;20560;-81
2024/03/05 02:25:05;;;;;;;35.10;12.55;;;;;;;;;;6172190;28;20042;-81
2024/03/05 02:28:08;;;;;;;37.40;12.95;;;;;;;;;;6178381;28;20049;-83
2024/03/05 02:31:10;;;;;;;39.00;12.82;;;;;;;;;;6178796;28;20082;-80
2024/03/05 02:34:12;;;;;;;36.67;13.20;;;;;;;;;;6176358;28;20050;-79
2024/03/05 02:37:13;;;;;;;38.97;12.07;;;;;;;;;;6177026;28;20575;-79
2024/03/05 02:40:16;;;;;;;35.85;13.75;;;;;;;;;;6174215;28;20045;-81
2024/03/05 02:43:17;;;;;;;36.80;12.35;;;;;;;;;;6171260;28;20042;-81
2024/03/05 02:46:19;;;;;;;37.67;12.77;;;;;;;;;;6178572;28;20102;-81
2024/03/05 02:49:21;;;;;;;36.35;13.45;;;;;;;;;;6179115;28;20050;-81
2024/03/05 02:52:23;;;;;;;40.08;12.30;;;;;;;;;;6177367;28;20549;-80
2024/03/05 02:55:25;;;;;;;40.72;12.13;;;;;;;;;;6174183;28;20047;-80
2024/03/05 02:58:26;;;;;;;34.90;12.13;;;;;;;;;;6181273;28;20558;-80
2024/03/05 03:01:28;;;;;;;37.42;12.30;;;;;;;;;;6182375;28;20669;-82
2024/03/05 03:04:30;;;;;;;35.63;12.05;;;;;;;;;;6175729;28;20042;-82
2024/03/05 03:07:32;;;;;;;35.67;12.38;;;;;;;;;;6179789;28;20050;-82
2024/03/05 03:10:34;;;;;;;35.95;12.30;;;;;;;;;;6173284;28;20425;-82
2024/03/05 03:13:36;;;;;;;39.42;12.88;;;;;;;;;;6176809;28;20135;-79
2024/03/05 03:16:39;;;;;;;35.85;13.43;;;;;;;;;;6182826;28;20133;-81
2024/03/05 03:19:42;;;;;;;34.22;12.93;;;;;;;;;;6175553;28;20197;-82
2024/03/05 03:22:48;;;;;;;41.17;11.88;;;;;;;;;;6179662;28;20050;-81
2024/03/05 03:25:50;;;;;;;34.65;12.00;;;;;;;;;;6169779;28;20311;-81
2024/03/05 03:28:54;;;;;;;37.97;12.05;;;;;;;;;;6178835;28;20046;-82
2024/03/05 03:31:56;;;;;;;36.88;12.02;;;;;;;;;;6181068;28;20053;-79
2024/03/05 03:34:58;;;;;;;36.00;12.10;;;;;;;;;;6175102;28;20577;-82
2024/03/05 03:38:00;;;;;;;35.72;11.80;;;;;;;;;;6170002;28;20045;-82
2024/03/05 03:41:05;;;;;;;34.10;11.70;;;;;;;;;;6177586;28;20046;-81
2024/03/05 03:44:07;;;;;;;39.83;12.43;;;;;;;;;;6181550;28;20057;-79
2024/03/05 03:47:08;;;;;;;35.33;12.20;;;;;;;;;;6178772;28;20047;-79
2024/03/05 03:50:10;;;;;;;38.22;13.70;;;;;;;;;;6176258;28;20104;-82
2024/03/05 03:53:12;;;;;;;39.05;12.88;;;;;;;;;;6173203;28;20420;-82
2024/03/05 03:56:14;;;;;;;38.90;12.35;;;;;;;;;;6174444;28;20051;-81
2024/03/05 03:59:15;;;;;;;34.42;12.65;;;;;;;;;;6175532;28;20042;-80
2024/03/05 04:02:17;;;;;;;34.42;12.65;;;;;;;;;;6178451;28;20070;-80
2024/03/05 04:05:19;;;;;;;42.78;13.80;;;;;;;;;;6186328;28;20061;-81
2024/03/05 04:08:21;;;;;;;39.90;12.70;;;;;;;;;;6176928;28;20045;-82
2024/03/05 04:11:23;;;;;;;36.25;12.63;;;;;;;;;;6185839;28;20124;-81
2024/03/05 04:14:24;;;;;;;42.58;13.80;;;;;;;;;;6183860;28;20509;-81
2024/03/05 04:17:29;;;;;;;42.38;12.10;;;;;;;;;;6188549;28;20413;-81
2024/03/05 04:20:31;;;;;;;33.80;12.38;;;;;;;;;;6189958;28;20050;-81
2024/03/05 04:23:33;;;;;;;42.33;13.88;;;;;;;;;;6188523;28;20046;-81
2024/03/05 04:26:37;;;;;;;46.17;13.77;;;;;;;;;;6196259;28;20084;-80
2024/03/05 04:29:41;;;;;;;38.88;12.55;;;;;;;;;;6196313;28;20152;-81
2024/03/05 04:32:46;;;;;;;44.15;14.48;;;;;;;;;;6202992;28;20690;-79
2024/03/05 04:36:00;;;;;;;46.00;14.27;;;;;;;;;;6191249;28;20046;-79
2024/03/05 04:39:02;;;;;;;39.47;13.68;;;;;;;;;;6198228;28;20054;-79
2024/03/05 04:42:04;;;;;;;45.00;14.15;;;;;;;;;;6183503;28;20104;-80
2024/03/05 04:45:07;;;;;;;46.13;14.20;;;;;;;;;;6182890;28;20078;-81
2024/03/05 04:48:09;;;;;;;46.00;14.15;;;;;;;;;;6178585;28;20746;-81
2024/03/05 04:51:12;;;;;;;46.10;14.32;;;;;;;;;;6183351;28;20066;-81
2024/03/05 04:54:14;;;;;;;44.50;13.98;;;;;;;;;;6185197;28;20061;-79
2024/03/05 04:57:16;;;;;;;51.00;15.30;;;;;;;;;;6177386;28;20061;-82
2024/03/05 05:00:23;;;;;;;46.10;14.93;;;;;;;;;;6180940;28;20046;-80
2024/03/05 05:03:26;;;;;;;49.97;15.23;;;;;;;;;;6194828;28;20076;-79
2024/03/05 05:06:28;;;;;;;45.45;14.57;;;;;;;;;;6179137;28;20047;-81
2024/03/05 05:09:29;;;;;;;46.72;15.00;;;;;;;;;;6172148;28;20042;-79
2024/03/05 05:12:31;;;;;;;39.45;14.38;;;;;;;;;;6189943;28;20057;-81
2024/03/05 05:15:33;;;;;;;42.67;13.68;;;;;;;;;;6181450;28;20527;-82
2024/03/05 05:18:35;;;;;;;49.90;14.90;;;;;;;;;;6180364;28;20182;-82
2024/03/05 05:21:37;;;;;;;43.80;14.25;;;;;;;;;;6175674;28;20050;-81
2024/03/05 05:24:38;;;;;;;42.33;14.82;;;;;;;;;;6177754;28;20517;-78
2024/03/05 05:27:41;;;;;;;49.47;15.55;;;;;;;;;;6175044;28;20073;-82
2024/03/05 05:30:43;;;;;;;47.20;15.00;;;;;;;;;;6180056;28;20061;-82
2024/03/05 05:33:45;;;;;;;47.33;14.15;;;;;;;;;;6182114;28;20052;-80
2024/03/05 05:36:47;;;;;;;45.25;15.13;;;;;;;;;;6171937;28;20057;-81
2024/03/05 05:39:48;;;;;;;44.80;15.82;;;;;;;;;;6172344;28;20063;-81
2024/03/05 05:42:50;;;;;;;46.60;14.45;;;;;;;;;;6178821;28;20050;-82
2024/03/05 05:45:52;;;;;;;49.78;14.98;;;;;;;;;;6181108;28;20053;-81
2024/03/05 05:48:54;;;;;;;43.80;14.00;;;;;;;;;;6171400;28;20432;-80
2024/03/05 05:51:56;;;;;;;42.85;14.95;;;;;;;;;;6179100;28;20042;-81
2024/03/05 05:54:58;;;;;;;44.90;15.25;;;;;;;;;;6170567;28;20054;-82
2024/03/05 05:58:03;;;;;;;45.30;14.35;;;;;;;;;;6173968;28;20042;-82
2024/03/05 06:01:05;;;;;;;50.72;15.25;;;;;;;;;;6178806;28;20050;-82
2024/03/05 06:04:07;;;;;;;43.08;13.73;;;;;;;;;;6179552;28;20117;-82
2024/03/05 06:07:11;;;;;;;46.97;15.05;;;;;;;;;;6168796;28;20129;-81
2024/03/05 06:10:17;;;;;;;47.80;14.35;;;;;;;;;;6181041;28;20509;-81
2024/03/05 06:13:20;;;;;;;42.88;14.90;;;;;;;;;;6174816;28;20106;-79
2024/03/05 06:16:22;;;;;;;44.30;13.32;;;;;;;;;;6177655;28;20038;-81
2024/03/05 06:19:24;;;;;;;45.38;13.20;;;;;;;;;;6178870;28;20560;-82
2024/03/05 06:22:28;;;;;;;41.05;13.57;;;;;;;;;;6174302;28;20452;-81
2024/03/05 06:25:35;;;;;;;44.08;14.35;;;;;;;;;;6178290;28;20049;-81
2024/03/05 06:28:37;;;;;;;38.90;13.55;;;;;;;;;;6178900;28;20583;-84
2024/03/05 06:31:39;;;;;;;46.25;14.13;;;;;;;;;;6179783;28;20119;-83
2024/03/05 06:34:42;;;;;;;46.22;13.57;;;;;;;;;;6178774;28;20138;-81
2024/03/05 06:37:49;;;;;;;47.72;14.07;;;;;;;;;;6172787;28;20138;-83
2024/03/05 06:40:54;;;;;;;41.15;13.25;;;;;;;;;;6175949;28;20043;-85
2024/03/05 06:44:09;;;;;;;44.45;14.35;;;;;;;;;;6182758;28;20053;-83
2024/03/05 06:47:12;;;;;;;153.35;41.47;;;;;;;;;;6180331;28;20521;-84
2024/03/05 06:50:19;;;;;;;51.78;16.92;;;;;;;;;;6181018;28;20046;-83
2024/03/05 06:56:42;;;;;;;49.38;14.95;;;;;;;;;;6179389;28;20053;-84
2024/03/05 06:59:43;;;;;;;61.42;19.60;;;;;;;;;;6179178;28;20058;-84
2024/03/05 07:02:45;;;;;;;55.83;16.55;;;;;;;;;;6156373;28;20086;-83
2024/03/05 07:05:47;;;;;;;65.30;22.45;;;;;;;;;;6172247;28;20051;-84
2024/03/05 07:08:51;;;;;;;59.72;18.90;;;;;;;;;;6180110;28;20109;-84
2024/03/05 07:11:54;;;;;;;49.30;16.67;;;;;;;;;;6174915;28;20049;-82
2024/03/05 07:14:55;;;;;;;56.28;16.58;;;;;;;;;;6181807;28;20133;-83
2024/03/05 07:17:57;;;;;;;49.20;15.25;;;;;;;;;;6180127;28;20081;-84
2024/03/05 07:20:59;;;;;;;52.38;17.50;;;;;;;;;;6176041;28;20057;-83
2024/03/05 07:24:01;;;;;;;57.15;17.30;;;;;;;;;;6174349;28;20545;-84
2024/03/05 07:27:03;;;;;;;47.67;16.00;;;;;;;;;;6172718;28;20051;-82
2024/03/05 07:30:17;;;;;;;52.38;15.80;;;;;;;;;;6176592;28;20057;-82
2024/03/05 07:33:19;;;;;;;53.70;16.60;;;;;;;;;;6178134;28;20053;-83
2024/03/05 07:36:21;;;;;;;53.83;15.80;;;;;;;;;;6172579;28;20042;-81
2024/03/05 07:39:24;;;;;;;51.83;18.75;;;;;;;;;;6184760;28;20160;-82
2024/03/05 07:42:26;;;;;;;50.10;14.95;;;;;;;;;;6179587;28;20133;-82
2024/03/05 07:45:28;;;;;;;45.83;16.10;;;;;;;;;;6188492;28;20063;-82
2024/03/05 07:48:30;;;;;;;49.58;14.48;;;;;;;;;;6184600;28;20223;-84
2024/03/05 07:51:31;;;;;;;46.90;15.35;;;;;;;;;;6185507;28;20061;-82
2024/03/05 07:54:45;;;;;;;46.72;14.45;;;;;;;;;;6192273;28;20102;-82
2024/03/05 07:57:52;;;;;;;45.88;14.82;;;;;;;;;;6187031;28;20046;-84
2024/03/05 08:00:54;;;;;;;57.63;17.67;;;;;;;;;;6184464;28;20050;-84
2024/03/05 08:03:57;;;;;;;51.90;15.23;;;;;;;;;;6183503;28;20141;-82
2024/03/05 08:06:58;;;;;;;43.17;15.30;;;;;;;;;;6175296;28;20042;-84
2024/03/05 08:10:08;;;;;;;51.88;15.48;;;;;;;;;;6179809;28;20057;-83
2024/03/05 08:13:10;;;;;;;51.67;13.48;;;;;;;;;;6181352;28;20058;-83
2024/03/05 08:16:12;;;;;;;51.17;14.35;;;;;;;;;;6185985;28;20050;-82
2024/03/05 08:19:14;;;;;;;47.95;13.98;;;;;;;;;;6185642;28;20859;-84
2024/03/05 08:22:16;;;;;;;45.58;14.63;;;;;;;;;;6177644;28;20613;-84
2024/03/05 08:25:18;;;;;;;49.90;15.10;;;;;;;;;;6180951;28;20176;-84
2024/03/05 08:28:21;;;;;;;47.10;15.52;;;;;;;;;;6183756;28;20517;-84
2024/03/05 08:31:24;;;;;;;43.97;15.60;;;;;;;;;;6179808;28;20046;-82
2024/03/05 08:34:26;;;;;;;53.03;20.00;;;;;;;;;;6183297;28;20050;-83
2024/03/05 08:37:28;;;;;;;51.25;20.77;;;;;;;;;;6180982;28;20050;-84
2024/03/05 08:40:35;;;;;;;51.65;17.83;;;;;;;;;;6174363;28;20476;-85
2024/03/05 08:43:37;;;;;;;60.75;18.33;;;;;;;;;;6184253;28;20042;-82
2024/03/05 08:46:39;;;;;;;53.97;17.45;;;;;;;;;;6184215;28;20042;-82
2024/03/05 08:49:41;;;;;;;53.78;17.33;;;;;;;;;;6178223;28;20057;-84
2024/03/05 08:52:43;;;;;;;47.45;16.50;;;;;;;;;;6178033;28;20100;-83
2024/03/05 08:55:45;;;;;;;48.20;16.30;;;;;;;;;;6180095;28;20049;-81
2024/03/05 08:58:47;;;;;;;40.55;15.88;;;;;;;;;;6182209;28;20057;-83
2024/03/05 09:01:50;;;;;;;45.63;15.63;;;;;;;;;;6179371;28;20046;-82
2024/03/05 09:04:52;;;;;;;50.22;16.42;;;;;;;;;;6178838;28;20069;-81
2024/03/05 09:07:54;;;;;;;49.00;15.95;;;;;;;;;;6182097;28;20039;-81
2024/03/05 09:10:56;;;;;;;45.33;15.23;;;;;;;;;;6178382;28;20050;-82
2024/03/05 09:13:58;;;;;;;50.45;15.63;;;;;;;;;;6183246;28;20142;-83
2024/03/05 09:17:00;;;;;;;46.67;15.65;;;;;;;;;;6184194;28;20047;-80
2024/03/05 09:20:13;;;;;;;44.80;15.30;;;;;;;;;;6179438;28;20073;-83
2024/03/05 09:23:15;;;;;;;50.63;16.17;;;;;;;;;;6179312;28;20047;-83
2024/03/05 09:26:17;;;;;;;48.13;16.55;;;;;;;;;;6176247;28;20126;-82
2024/03/05 09:29:18;;;;;;;45.08;16.25;;;;;;;;;;6182787;28;20047;-82
2024/03/05 09:32:20;;;;;;;47.40;15.18;;;;;;;;;;6181982;28;20046;-83
2024/03/05 09:35:24;;;;;;;42.70;14.88;;;;;;;;;;6174388;28;20517;-82
2024/03/05 09:38:26;;;;;;;44.70;14.45;;;;;;;;;;6184624;28;20058;-82
2024/03/05 09:41:35;;;;;;;43.63;14.00;;;;;;;;;;6175146;28;20125;-82
2024/03/05 09:44:38;;;;;;;47.83;15.02;;;;;;;;;;6177483;28;20046;-81
2024/03/05 09:47:39;;;;;;;44.53;14.27;;;;;;;;;;6161693;28;20460;-81
2024/03/05 09:50:41;;;;;;;38.90;14.25;;;;;;;;;;6178942;28;20096;-81
2024/03/05 09:53:43;;;;;;;41.80;14.55;;;;;;;;;;6172949;28;20077;-84
2024/03/05 09:56:45;;;;;;;44.92;13.65;;;;;;;;;;6177446;28;20077;-84
2024/03/05 09:59:48;;;;;;;43.30;14.75;;;;;;;;;;6159696;28;20691;-84
2024/03/05 10:02:50;;;;;;;41.20;14.50;;;;;;;;;;6177541;28;20050;-83
2024/03/05 10:05:53;;;;;;;51.60;15.63;;;;;;;;;;6173374;28;20062;-82
2024/03/05 10:08:55;;;;;;;49.13;15.07;;;;;;;;;;6179612;28;20101;-84
2024/03/05 10:11:57;;;;;;;44.05;15.00;;;;;;;;;;6175714;28;20145;-81
2024/03/05 10:15:22;;;;;;;44.42;15.02;;;;;;;;;;6178478;28;20050;-81
2024/03/05 10:18:31;;;;;;;41.65;14.18;;;;;;;;;;6178936;28;20046;-83
2024/03/05 10:21:33;;;;;;;44.15;13.88;;;;;;;;;;6173647;28;20042;-81
2024/03/05 10:24:35;;;;;;;49.92;15.25;;;;;;;;;;6174162;28;21814;-82
2024/03/05 10:27:38;;;;;;;42.95;13.88;;;;;;;;;;6189123;28;20051;-82
2024/03/05 10:30:42;;;;;;;46.05;14.90;;;;;;;;;;6178453;28;20136;-82
2024/03/05 10:33:46;;;;;;;49.95;15.55;;;;;;;;;;6178326;28;20061;-81
2024/03/05 10:36:48;;;;;;;;;;;;;;;;;;6169045;28;20061;-83
2024/03/05 10:39:51;;;;;;;46.75;14.38;;;;;;;;;;6178542;28;19921;-82
2024/03/05 10:43:02;;;;;;;53.78;16.73;;;;;;;;;;6182387;28;20053;-83
2024/03/05 10:46:04;;;;;;;41.78;14.27;;;;;;;;;;6182974;28;20056;-85
2024/03/05 10:49:07;;;;;;;48.72;16.08;;;;;;;;;;6194116;28;20046;-85
2024/03/05 10:52:10;;;;;;;41.92;13.80;;;;;;;;;;6177435;28;20061;-82
2024/03/05 10:55:12;;;;;;;43.88;14.80;;;;;;;;;;6173422;28;20137;-83
2024/03/05 10:58:36;;;;;;;46.42;14.63;;;;;;;;;;6181575;28;20073;-85
2024/03/05 11:01:38;;;;;;;42.88;14.43;;;;;;;;;;6179763;28;20076;-82
2024/03/05 11:04:44;;;;;;;50.22;14.75;;;;;;;;;;6181137;28;20046;-83
2024/03/05 11:07:47;;;;;;;43.30;14.85;;;;;;;;;;6173890;28;20050;-83
2024/03/05 11:11:06;;;;;;;;;;;;;;;;;;6176130;28;20408;-82
2024/03/05 11:14:10;;;;;;;44.92;13.57;;;;;;;;;;6181338;28;20320;-84
2024/03/05 11:17:12;;;;;;;42.42;13.55;;;;;;;;;;6183633;28;20455;-84
2024/03/05 11:20:40;;;;;;;45.80;14.07;;;;;;;;;;6155049;28;20055;-84
2024/03/05 11:23:51;;;;;;;39.70;12.60;;;;;;;;;;6156851;28;20053;-84
2024/03/05 11:27:11;;;;;;;41.40;14.30;;;;;;;;;;6178916;28;20045;-83
2024/03/05 11:30:17;;;;;;;41.58;13.73;;;;;;;;;;6184426;28;20639;-83
2024/03/05 11:33:24;;;;;;;45.92;14.48;;;;;;;;;;6177917;28;20101;-83
2024/03/05 11:36:26;;;;;;;45.58;13.88;;;;;;;;;;6175367;28;20049;-82
2024/03/05 11:39:27;;;;;;;44.58;14.35;;;;;;;;;;6176617;28;20051;-84
2024/03/05 11:42:32;;;;;;;50.92;16.00;;;;;;;;;;6178856;28;20441;-83
2024/03/05 11:45:48;;;;;;;42.15;14.25;;;;;;;;;;6181791;28;20054;-82
2024/03/05 11:48:59;;;;;;;47.17;14.82;;;;;;;;;;6169732;28;20047;-84
2024/03/05 11:52:01;;;;;;;44.90;15.30;;;;;;;;;;6174763;28;20051;-83
2024/03/05 11:55:05;;;;;;;43.03;13.68;;;;;;;;;;6179337;28;20524;-82
2024/03/05 11:58:07;;;;;;;43.90;14.93;;;;;;;;;;6181495;28;20197;-84
2024/03/05 12:01:09;;;;;;;64.47;26.63;;;;;;;;;;6179793;28;20047;-81
2024/03/05 12:04:11;;;;;;;38.22;13.25;;;;;;;;;;6158639;28;20152;-83
2024/03/05 12:07:13;;;;;;;45.53;15.82;;;;;;;;;;6175577;28;20722;-83
2024/03/05 12:10:20;;;;;;;39.38;13.07;;;;;;;;;;6175846;28;20064;-83
2024/03/05 12:13:22;;;;;;;42.15;14.65;;;;;;;;;;6180751;28;20663;-83
2024/03/05 12:16:24;;;;;;;38.30;14.02;;;;;;;;;;6180877;28;20042;-83
2024/03/05 12:19:26;;;;;;;40.95;14.27;;;;;;;;;;6176179;28;20047;-84
2024/03/05 12:22:28;;;;;;;40.92;14.57;;;;;;;;;;6174517;28;20050;-82
2024/03/05 12:25:29;;;;;;;37.67;12.45;;;;;;;;;;6178952;28;20066;-84
2024/03/05 12:28:31;;;;;;;33.75;11.70;;;;;;;;;;6182646;28;20416;-82
2024/03/05 12:31:33;;;;;;;40.45;13.68;;;;;;;;;;6179628;28;20046;-83
2024/03/05 12:34:35;;;;;;;36.53;13.15;;;;;;;;;;6182066;28;20066;-83
2024/03/05 12:37:39;;;;;;;36.55;13.43;;;;;;;;;;6184688;28;20054;-81
2024/03/05 12:40:41;;;;;;;42.70;14.18;;;;;;;;;;6185521;28;20051;-83
2024/03/05 12:43:53;;;;;;;33.20;11.95;;;;;;;;;;6190308;28;20059;-82
2024/03/05 12:47:12;;;;;;;37.65;12.57;;;;;;;;;;6183590;28;20042;-80
2024/03/05 12:50:18;;;;;;;40.25;12.18;;;;;;;;;;6183481;28;21527;-85
2024/03/05 12:53:19;;;;;;;34.15;10.95;;;;;;;;;;6186080;28;20062;-84
2024/03/05 12:56:22;;;;;;;31.77;11.63;;;;;;;;;;6177969;28;20128;-82
2024/03/05 12:59:23;;;;;;;32.78;12.10;;;;;;;;;;6164013;28;20042;-83
2024/03/05 13:02:26;;;;;;;33.50;13.27;;;;;;;;;;6185774;28;20154;-84
2024/03/05 13:05:28;;;;;;;30.35;10.98;;;;;;;;;;6181995;28;20046;-85
2024/03/05 13:08:29;;;;;;;34.67;10.98;;;;;;;;;;6185055;28;20061;-83
2024/03/05 13:11:31;;;;;;;30.35;11.23;;;;;;;;;;6179331;28;20149;-85
2024/03/05 13:14:33;;;;;;;35.30;11.23;;;;;;;;;;6185315;28;20416;-85
2024/03/05 13:17:35;;;;;;;37.60;12.52;;;;;;;;;;6185673;28;20054;-84
2024/03/05 13:20:37;;;;;;;41.78;13.18;;;;;;;;;;6176348;28;20050;-84
2024/03/05 13:23:40;;;;;;;37.72;12.45;;;;;;;;;;6186596;28;20796;-84
2024/03/05 13:26:46;;;;;;;34.15;12.38;;;;;;;;;;6180050;28;20475;-83
2024/03/05 13:29:47;;;;;;;35.42;12.20;;;;;;;;;;6181258;28;20440;-85
2024/03/05 13:32:57;;;;;;;25.23;9.80;;;;;;;;;;6178099;28;20694;-84
2024/03/05 13:36:05;;;;;;;26.17;9.45;;;;;;;;;;6180472;28;20053;-85
2024/03/05 13:39:08;;;;;;;25.30;9.93;;;;;;;;;;6180056;28;20047;-84
2024/03/05 13:42:10;;;;;;;22.85;8.93;;;;;;;;;;6178350;28;20053;-85
2024/03/05 13:45:12;;;;;;;20.70;8.60;;;;;;;;;;6182936;28;21133;-82
2024/03/05 13:48:15;;;;;;;23.70;9.07;;;;;;;;;;6182416;28;20046;-80
2024/03/05 13:51:18;;;;;;;23.95;8.80;;;;;;;;;;6182151;28;20046;-83
2024/03/05 13:54:20;;;;;;;23.08;9.10;;;;;;;;;;6184155;28;20055;-82
2024/03/05 13:57:21;;;;;;;23.15;8.82;;;;;;;;;;6179637;28;20054;-81
2024/03/05 14:00:26;;;;;;;22.02;9.65;;;;;;;;;;6179517;28;20046;-83
2024/03/05 14:03:28;;;;;;;23.30;9.45;;;;;;;;;;6180143;28;20051;-84
2024/03/05 14:06:31;;;;;;;24.80;9.88;;;;;;;;;;6177764;28;20046;-83
2024/03/05 14:09:32;;;;;;;21.73;8.93;;;;;;;;;;6180473;28;20047;-82
2024/03/05 14:12:34;;;;;;;20.27;9.05;;;;;;;;;;6178515;28;20679;-83
2024/03/05 14:15:37;;;;;;;24.08;9.98;;;;;;;;;;6182109;28;20061;-83
2024/03/05 14:18:41;;;;;;;26.90;10.07;;;;;;;;;;6178717;28;20058;-81
2024/03/05 14:21:42;;;;;;;25.25;10.02;;;;;;;;;;6183411;28;20054;-81
2024/03/05 14:24:44;;;;;;;27.40;10.38;;;;;;;;;;6175665;28;20054;-84
2024/03/05 14:27:46;;;;;;;18.38;9.05;;;;;;;;;;6180516;28;20581;-82
2024/03/05 14:30:50;;;;;;;23.33;9.95;;;;;;;;;;6173311;28;20034;-84
2024/03/05 14:33:51;;;;;;;21.55;9.00;;;;;;;;;;6180637;28;20235;-82
2024/03/05 14:36:53;;;;;;;21.05;9.15;;;;;;;;;;6181807;28;20049;-82
2024/03/05 14:39:55;;;;;;;19.83;8.63;;;;;;;;;;6179514;28;20074;-84
2024/03/05 14:42:57;;;;;;;19.33;8.70;;;;;;;;;;6179520;28;20374;-84
2024/03/05 14:45:59;;;;;;;21.50;8.73;;;;;;;;;;6183745;28;20047;-84
2024/03/05 14:49:01;;;;;;;22.30;9.13;;;;;;;;;;6157597;28;20046;-83
2024/03/05 14:52:03;;;;;;;20.38;8.43;;;;;;;;;;6167254;28;20042;-82
2024/03/05 14:55:05;;;;;;;20.17;8.63;;;;;;;;;;6172058;28;20588;-81
2024/03/05 14:58:06;;;;;;;21.23;9.18;;;;;;;;;;6173483;28;20050;-83
2024/03/05 15:01:08;;;;;;;24.92;9.68;;;;;;;;;;6179876;28;20131;-82
2024/03/05 15:04:10;;;;;;;18.75;9.13;;;;;;;;;;6180794;28;20038;-84
2024/03/05 15:07:11;;;;;;;25.45;9.38;;;;;;;;;;6172023;28;20513;-79
2024/03/05 15:10:15;;;;;;;22.95;9.60;;;;;;;;;;6176692;28;20048;-83
2024/03/05 15:13:17;;;;;;;22.08;9.10;;;;;;;;;;6180771;28;20046;-83
2024/03/05 15:16:19;;;;;;;23.42;9.43;;;;;;;;;;6174387;28;20449;-81
2024/03/05 15:19:20;;;;;;;21.38;9.02;;;;;;;;;;6173918;28;20531;-83
2024/03/05 15:22:22;;;;;;;19.48;8.63;;;;;;;;;;6180602;28;20408;-81
2024/03/05 15:25:24;;;;;;;21.75;9.13;;;;;;;;;;6180646;28;20100;-80
2024/03/05 15:28:26;;;;;;;20.58;9.43;;;;;;;;;;6181203;28;20611;-82
2024/03/05 15:31:28;;;;;;;22.40;10.05;;;;;;;;;;6176754;28;20433;-82
2024/03/05 15:34:29;;;;;;;21.48;9.88;;;;;;;;;;6174689;28;20057;-80
2024/03/05 15:37:32;;;;;;;24.58;11.02;;;;;;;;;;6171820;28;20279;-81
2024/03/05 15:40:34;;;;;;;19.42;9.85;;;;;;;;;;6173657;28;20054;-80
2024/03/05 15:43:36;;;;;;;22.35;10.00;;;;;;;;;;6179385;28;20074;-83
2024/03/05 15:46:38;;;;;;;23.15;10.02;;;;;;;;;;6176958;28;20175;-80
2024/03/05 15:49:41;;;;;;;22.60;9.65;;;;;;;;;;6174765;28;20046;-82
2024/03/05 15:52:43;;;;;;;24.42;10.60;;;;;;;;;;6170795;28;20061;-81
2024/03/05 15:55:45;;;;;;;19.65;10.20;;;;;;;;;;6189658;28;20061;-81
2024/03/05 16:02:07;;;;;;;22.90;9.98;;;;;;;;;;6197316;28;20069;-81
2024/03/05 16:05:09;;;;;;;22.13;10.38;;;;;;;;;;6169543;28;20053;-81
2024/03/05 16:08:29;;;;;;;19.90;10.20;;;;;;;;;;6176817;28;20096;-82
2024/03/05 16:11:31;;;;;;;23.07;10.17;;;;;;;;;;6177594;28;20058;-82
2024/03/05 16:14:33;;;;;;;23.33;10.50;;;;;;;;;;6186954;28;20153;-81
2024/03/05 16:17:35;;;;;;;21.58;10.25;;;;;;;;;;6181859;28;20085;-81
2024/03/05 16:20:37;;;;;;;24.98;10.65;;;;;;;;;;6176551;28;20137;-82
2024/03/05 16:23:39;;;;;;;25.95;10.57;;;;;;;;;;6173033;28;20061;-79
2024/03/05 16:26:41;;;;;;;23.35;10.45;;;;;;;;;;6179432;28;20057;-82
2024/03/05 16:29:43;;;;;;;23.77;11.13;;;;;;;;;;6197648;28;20058;-79
2024/03/05 16:32:46;;;;;;;22.55;10.55;;;;;;;;;;6198684;28;20082;-79
2024/03/05 16:35:49;;;;;;;24.50;10.48;;;;;;;;;;6191475;28;20034;-79
2024/03/05 16:38:51;;;;;;;24.33;10.60;;;;;;;;;;6203310;28;20035;-80
2024/03/05 16:41:53;;;;;;;19.90;9.40;;;;;;;;;;6182863;28;20800;-81
2024/03/05 16:44:55;;;;;;;21.58;10.43;;;;;;;;;;6177490;28;20053;-78
2024/03/05 16:48:01;;;;;;;24.10;10.38;;;;;;;;;;6173532;28;20057;-79
2024/03/05 16:51:04;;;;;;;23.27;9.68;;;;;;;;;;6177156;28;20054;-80
2024/03/05 16:54:06;;;;;;;23.60;10.75;;;;;;;;;;6174554;28;20055;-79
2024/03/05 16:57:08;;;;;;;20.90;9.52;;;;;;;;;;6173074;28;20038;-80
2024/03/05 17:00:23;;;;;;;19.25;9.05;;;;;;;;;;6179385;28;20042;-79
2024/03/05 17:03:28;;;;;;;19.15;9.65;;;;;;;;;;6178939;28;20254;-81
2024/03/05 17:06:30;;;;;;;16.40;7.80;;;;;;;;;;6165865;28;20485;-82
2024/03/05 17:09:32;;;;;;;14.40;7.60;;;;;;;;;;6154082;28;20145;-81
2024/03/05 17:12:34;;;;;;;15.00;8.15;;;;;;;;;;6190400;28;20889;-82
2024/03/05 17:15:41;;;;;;;18.43;8.60;;;;;;;;;;6180434;28;20062;-80
2024/03/05 17:18:42;;;;;;;14.00;7.07;;;;;;;;;;6156146;28;20058;-81
2024/03/05 17:21:48;;;;;;;15.90;7.35;;;;;;;;;;6169793;28;20054;-79
2024/03/05 17:24:51;;;;;;;12.38;6.57;;;;;;;;;;6178056;28;20042;-80
2024/03/05 17:27:53;;;;;;;12.57;5.88;;;;;;;;;;6182063;28;20065;-82
2024/03/05 17:30:56;;;;;;;13.60;6.85;;;;;;;;;;6179435;28;20053;-81
2024/03/05 17:33:58;;;;;;;14.82;7.30;;;;;;;;;;6181793;28;20061;-79
2024/03/05 17:37:00;;;;;;;14.65;8.18;;;;;;;;;;6173787;28;20057;-77
2024/03/05 17:40:04;;;;;;;15.20;8.55;;;;;;;;;;6178420;28;20110;-79
2024/03/05 17:43:06;;;;;;;13.00;6.70;;;;;;;;;;6190814;28;20042;-81
2024/03/05 17:46:09;;;;;;;13.80;5.82;;;;;;;;;;6188810;28;20049;-81
2024/03/05 17:49:12;;;;;;;;;;;;;;;;;;6180364;28;20799;-80
2024/03/05 17:52:13;;;;;;;15.20;7.30;;;;;;;;;;6183599;28;19929;-80
2024/03/05 17:55:16;;;;;;;15.30;6.55;;;;;;;;;;6180908;28;20050;-78
2024/03/05 17:58:19;;;;;;;14.48;6.97;;;;;;;;;;6185796;28;20039;-80